createdAt,value
2023-10-14T00:00:27.539Z,18.56
2023-10-14T00:03:28.863Z,18.42
2023-10-14T00:06:19.592Z,18.53
2023-10-14T00:09:13.260Z,18.34
2023-10-14T00:12:11.176Z,18.26
2023-10-14T00:15:06.363Z,18.32
2023-10-14T00:17:59.067Z,18.44
2023-10-14T00:20:52.603Z,18.49
2023-10-14T00:23:42.919Z,18.39
2023-10-14T00:26:34.033Z,18.51
2023-10-14T00:29:25.157Z,18.41
2023-10-14T00:32:15.452Z,18.57
2023-10-14T00:35:07.037Z,18.50
2023-10-14T00:38:09.655Z,18.47
2023-10-14T00:41:00.873Z,18.68
2023-10-14T00:43:52.660Z,18.75
2023-10-14T00:46:49.897Z,18.65
2023-10-14T00:49:44.119Z,18.66
2023-10-14T00:52:34.851Z,18.65
2023-10-14T00:55:36.497Z,18.49
2023-10-14T00:58:29.569Z,18.51
2023-10-14T01:01:20.516Z,18.78
2023-10-14T01:04:19.987Z,18.69
2023-10-14T01:07:14.652Z,18.55
2023-10-14T01:10:07.084Z,18.64
2023-10-14T01:13:07.925Z,18.69
2023-10-14T01:16:04.260Z,18.57
2023-10-14T01:18:56.905Z,18.74
2023-10-14T01:21:52.145Z,18.67
2023-10-14T01:24:45.053Z,18.80
2023-10-14T01:27:38.085Z,18.66
2023-10-14T01:30:34.608Z,18.78
2023-10-14T01:33:26.739Z,18.87
2023-10-14T01:36:17.255Z,19.05
2023-10-14T01:39:12.473Z,19.09
2023-10-14T01:42:09.635Z,19.09
2023-10-14T01:45:00.430Z,19.12
2023-10-14T01:48:02.927Z,19.37
2023-10-14T01:50:56.438Z,19.19
2023-10-14T01:53:46.819Z,19.28
2023-10-14T01:56:38.470Z,19.18
2023-10-14T01:59:31.751Z,19.10
2023-10-14T02:02:23.888Z,19.10
2023-10-14T02:05:16.134Z,19.31
2023-10-14T02:08:06.659Z,19.53
2023-10-14T02:10:56.888Z,19.25
2023-10-14T02:13:47.163Z,19.17
2023-10-14T02:16:46.045Z,19.53
2023-10-14T02:19:40.514Z,19.31
2023-10-14T02:22:30.771Z,19.44
2023-10-14T02:25:22.000Z,19.37
2023-10-14T02:28:16.007Z,19.55
2023-10-14T02:31:17.226Z,19.08
2023-10-14T02:34:10.377Z,19.22
2023-10-14T02:37:03.103Z,19.43
2023-10-14T02:39:53.365Z,19.28
2023-10-14T02:42:43.699Z,18.96
2023-10-14T02:45:39.385Z,19.23
2023-10-14T02:48:49.676Z,19.07
2023-10-14T02:51:44.002Z,19.14
2023-10-14T02:54:36.649Z,19.15
2023-10-14T02:57:27.884Z,19.04
2023-10-14T03:00:25.350Z,19.09
2023-10-14T03:03:16.920Z,19.00
2023-10-14T03:06:10.192Z,19.12
2023-10-14T03:09:04.256Z,19.26
2023-10-14T03:11:55.020Z,19.31
2023-10-14T03:14:45.395Z,19.22
2023-10-14T03:17:45.047Z,19.27
2023-10-14T03:20:41.433Z,19.39
2023-10-14T03:23:34.150Z,19.22
2023-10-14T03:26:29.523Z,19.26
2023-10-14T03:29:24.487Z,19.30
2023-10-14T03:32:16.019Z,19.24
2023-10-14T03:35:13.575Z,19.16
2023-10-14T03:38:12.873Z,19.14
2023-10-14T03:41:19.247Z,19.04
2023-10-14T03:44:16.148Z,18.92
2023-10-14T03:47:16.232Z,18.66
2023-10-14T03:50:08.138Z,18.40
2023-10-14T03:52:59.050Z,17.59
2023-10-14T03:55:49.272Z,17.10
2023-10-14T03:58:42.764Z,16.87
2023-10-14T04:01:45.340Z,16.60
2023-10-14T04:04:36.099Z,16.64
2023-10-14T04:07:29.835Z,16.82
2023-10-14T04:10:24.651Z,16.83
2023-10-14T04:13:23.120Z,16.42
2023-10-14T04:16:14.182Z,16.20
2023-10-14T04:19:20.874Z,16.25
2023-10-14T04:22:29.346Z,14.39
2023-10-14T04:25:20.880Z,13.92
2023-10-14T04:28:32.128Z,13.78
2023-10-14T04:31:28.520Z,13.63
2023-10-14T04:34:23.742Z,13.82
2023-10-14T04:37:20.612Z,13.69
2023-10-14T04:40:18.016Z,13.38
2023-10-14T04:43:12.948Z,13.48
2023-10-14T04:46:17.095Z,13.49
2023-10-14T04:49:10.617Z,13.51
2023-10-14T04:52:06.457Z,13.33
2023-10-14T04:55:01.635Z,13.27
2023-10-14T04:58:07.670Z,13.04
2023-10-14T05:01:02.479Z,12.92
2023-10-14T05:03:57.605Z,13.05
2023-10-14T05:06:54.413Z,13.14
2023-10-14T05:09:57.325Z,12.97
2023-10-14T05:12:53.579Z,13.09
2023-10-14T05:15:47.146Z,12.82
2023-10-14T05:18:37.622Z,12.78
2023-10-14T05:21:44.778Z,12.98
2023-10-14T05:24:37.390Z,12.60
2023-10-14T05:27:37.440Z,12.72
2023-10-14T05:30:34.693Z,12.89
2023-10-14T05:33:25.134Z,12.83
2023-10-14T05:36:15.362Z,12.83
2023-10-14T05:39:07.584Z,12.95
2023-10-14T05:42:00.098Z,12.81
2023-10-14T05:44:59.401Z,12.86
2023-10-14T05:47:50.174Z,12.93
2023-10-14T05:50:41.785Z,12.80
2023-10-14T05:53:32.584Z,12.81
2023-10-14T05:56:22.897Z,12.79
2023-10-14T05:59:13.178Z,12.54
2023-10-14T06:02:08.305Z,12.27
2023-10-14T06:04:59.644Z,11.85
2023-10-14T06:07:50.438Z,11.93
2023-10-14T06:10:43.349Z,12.12
2023-10-14T06:13:33.681Z,12.19
2023-10-14T06:16:27.108Z,12.22
2023-10-14T06:19:19.974Z,12.40
2023-10-14T06:22:10.914Z,12.32
2023-10-14T06:25:02.370Z,12.37
2023-10-14T06:27:55.208Z,12.34
2023-10-14T06:30:46.198Z,12.45
2023-10-14T06:33:36.736Z,12.52
2023-10-14T06:36:29.536Z,12.42
2023-10-14T06:39:27.884Z,12.46
2023-10-14T06:42:20.901Z,12.41
2023-10-14T06:45:12.420Z,12.49
2023-10-14T06:48:04.838Z,12.38
2023-10-14T06:50:56.331Z,12.34
2023-10-14T06:53:49.414Z,12.23
2023-10-14T06:56:41.553Z,12.41
2023-10-14T06:59:31.777Z,12.39
2023-10-14T07:02:22.870Z,12.39
2023-10-14T07:05:13.457Z,12.69
2023-10-14T07:08:04.656Z,12.71
2023-10-14T07:10:59.079Z,12.64
2023-10-14T07:13:50.481Z,12.48
2023-10-14T07:16:42.243Z,12.36
2023-10-14T07:19:32.538Z,12.56
2023-10-14T07:22:24.727Z,12.33
2023-10-14T07:25:16.124Z,12.40
2023-10-14T07:28:14.876Z,12.26
2023-10-14T07:31:05.549Z,12.34
2023-10-14T07:34:03.784Z,12.46
2023-10-14T07:36:55.134Z,12.47
2023-10-14T07:39:51.505Z,12.45
2023-10-14T07:42:42.381Z,12.42
2023-10-14T07:45:37.713Z,12.56
2023-10-14T07:48:27.933Z,12.55
2023-10-14T07:51:29.272Z,12.50
2023-10-14T07:54:20.005Z,12.62
2023-10-14T07:57:13.345Z,12.83
2023-10-14T08:00:13.222Z,12.71
2023-10-14T08:03:08.213Z,12.76
2023-10-14T08:06:01.272Z,12.85
2023-10-14T08:08:52.331Z,12.82
2023-10-14T08:11:42.651Z,13.02
2023-10-14T08:14:33.693Z,13.01
2023-10-14T08:17:25.289Z,13.13
2023-10-14T08:20:20.594Z,13.38
2023-10-14T08:23:13.145Z,13.51
2023-10-14T08:26:04.735Z,13.49
2023-10-14T08:29:01.573Z,13.62
2023-10-14T08:31:55.467Z,13.61
2023-10-14T08:34:46.594Z,13.73
2023-10-14T08:37:39.348Z,13.42
2023-10-14T08:40:31.111Z,13.44
2023-10-14T08:43:27.770Z,13.54
2023-10-14T08:46:18.891Z,13.40
2023-10-14T08:49:13.963Z,13.55
2023-10-14T08:52:10.713Z,13.44
2023-10-14T08:55:03.845Z,13.44
2023-10-14T08:57:54.574Z,13.35
2023-10-14T09:00:46.671Z,13.56
2023-10-14T09:03:37.728Z,13.35
2023-10-14T09:06:28.049Z,13.59
2023-10-14T09:09:24.666Z,13.53
2023-10-14T09:12:17.919Z,13.65
2023-10-14T09:15:08.906Z,13.50
2023-10-14T09:17:59.749Z,13.57
2023-10-14T09:20:55.848Z,13.58
2023-10-14T09:23:49.304Z,13.74
2023-10-14T09:26:45.356Z,13.76
2023-10-14T09:29:40.014Z,14.06
2023-10-14T09:32:30.876Z,14.25
2023-10-14T09:35:21.096Z,14.23
2023-10-14T09:38:12.464Z,14.34
2023-10-14T09:41:03.915Z,14.56
2023-10-14T09:43:54.935Z,14.32
2023-10-14T09:46:50.088Z,14.22
2023-10-14T09:49:41.925Z,14.69
2023-10-14T09:52:32.430Z,14.57
2023-10-14T09:55:24.459Z,14.25
2023-10-14T09:58:19.604Z,14.36
2023-10-14T10:01:13.291Z,14.80
2023-10-14T10:04:12.245Z,14.67
2023-10-14T10:07:17.476Z,14.68
2023-10-14T10:10:16.657Z,14.92
2023-10-14T10:13:08.014Z,15.19
2023-10-14T10:16:06.332Z,15.03
2023-10-14T10:19:00.792Z,15.07
2023-10-14T10:22:21.945Z,14.79
2023-10-14T10:25:16.255Z,14.74
2023-10-14T10:28:36.502Z,14.60
2023-10-14T10:31:26.821Z,14.59
2023-10-14T10:34:19.968Z,14.72
2023-10-14T10:37:10.246Z,14.85
2023-10-14T10:40:06.609Z,14.67
2023-10-14T10:42:59.294Z,14.62
2023-10-14T10:45:53.654Z,14.71
2023-10-14T10:48:44.435Z,14.59
2023-10-14T10:51:36.904Z,14.53
2023-10-14T10:54:27.650Z,14.64
2023-10-14T10:57:21.924Z,14.68
2023-10-14T11:00:19.217Z,14.52
2023-10-14T11:03:15.324Z,14.49
2023-10-14T11:06:06.292Z,14.67
2023-10-14T11:08:58.521Z,14.87
2023-10-14T11:11:50.228Z,15.17
2023-10-14T11:14:43.571Z,14.83
2023-10-14T11:17:33.863Z,14.89
2023-10-14T11:20:25.552Z,14.90
2023-10-14T11:23:17.595Z,14.56
2023-10-14T11:26:13.389Z,14.68
2023-10-14T11:29:04.649Z,14.66
2023-10-14T11:32:00.094Z,14.77
2023-10-14T11:34:54.243Z,14.64
2023-10-14T11:37:57.334Z,14.36
2023-10-14T11:40:51.202Z,14.02
2023-10-14T11:43:46.117Z,13.96
2023-10-14T11:46:40.089Z,14.13
2023-10-14T11:49:34.102Z,13.88
2023-10-14T11:52:25.728Z,14.35
2023-10-14T11:55:16.753Z,14.63
2023-10-14T11:58:07.695Z,14.89
2023-10-14T12:00:58.185Z,15.00
2023-10-14T12:03:48.870Z,14.93
2023-10-14T12:06:41.881Z,15.00
2023-10-14T12:09:32.190Z,14.76
2023-10-14T12:12:22.518Z,14.59
2023-10-14T12:15:14.338Z,14.40
2023-10-14T12:18:04.973Z,14.11
2023-10-14T12:20:55.627Z,13.91
2023-10-14T12:23:48.457Z,13.97
2023-10-14T12:26:45.800Z,14.03
2023-10-14T12:29:36.816Z,13.73
2023-10-14T12:32:27.164Z,13.65
2023-10-14T12:35:19.409Z,13.70
2023-10-14T12:38:13.201Z,13.82
2023-10-14T12:41:08.640Z,13.96
2023-10-14T12:44:02.052Z,14.38
2023-10-14T12:46:52.833Z,14.51
2023-10-14T12:49:43.881Z,14.38
2023-10-14T12:52:34.727Z,14.43
2023-10-14T12:55:26.362Z,14.53
2023-10-14T12:58:19.625Z,14.46
2023-10-14T13:01:14.939Z,14.66
2023-10-14T13:04:14.493Z,14.27
2023-10-14T13:07:05.347Z,14.67
2023-10-14T13:09:55.570Z,14.47
2023-10-14T13:12:45.813Z,14.19
2023-10-14T13:15:39.298Z,14.04
2023-10-14T13:18:29.524Z,13.91
2023-10-14T13:21:22.566Z,14.23
2023-10-14T13:24:13.380Z,14.43
2023-10-14T13:27:03.581Z,14.63
2023-10-14T13:29:54.006Z,14.49
2023-10-14T13:32:49.275Z,14.32
2023-10-14T13:35:39.509Z,14.45
2023-10-14T13:38:29.707Z,14.43
2023-10-14T13:41:24.560Z,14.48
2023-10-14T13:44:15.357Z,14.29
2023-10-14T13:47:07.001Z,14.57
2023-10-14T13:50:00.259Z,14.53
2023-10-14T13:52:52.583Z,14.41
2023-10-14T13:55:42.864Z,14.24
2023-10-14T13:58:35.919Z,13.95
2023-10-14T14:01:26.296Z,13.75
2023-10-14T14:04:19.078Z,13.66
2023-10-14T14:07:13.800Z,13.79
2023-10-14T14:10:06.599Z,14.06
2023-10-14T14:12:57.102Z,14.10
2023-10-14T14:15:48.350Z,14.20
2023-10-14T14:18:38.776Z,14.30
2023-10-14T14:21:29.014Z,14.17
2023-10-14T14:24:23.806Z,14.20
2023-10-14T14:27:14.606Z,14.15
2023-10-14T14:30:08.662Z,13.94
2023-10-14T14:32:59.265Z,14.09
2023-10-14T14:35:51.540Z,13.88
2023-10-14T14:38:42.871Z,13.96
2023-10-14T14:41:38.103Z,14.11
2023-10-14T14:44:28.573Z,13.88
2023-10-14T14:47:18.895Z,14.02
2023-10-14T14:50:13.340Z,14.09
2023-10-14T14:53:07.899Z,13.56
2023-10-14T14:55:58.438Z,13.28
2023-10-14T14:58:51.361Z,13.41
2023-10-14T15:01:42.794Z,13.81
2023-10-14T15:04:33.607Z,14.01
2023-10-14T15:07:24.694Z,13.81
2023-10-14T15:10:15.280Z,13.90
2023-10-14T15:13:08.051Z,14.11
2023-10-14T15:16:01.176Z,14.14
2023-10-14T15:18:51.538Z,14.38
2023-10-14T15:21:41.781Z,14.26
2023-10-14T15:24:32.429Z,14.05
2023-10-14T15:27:22.755Z,14.14
2023-10-14T15:30:16.744Z,13.77
2023-10-14T15:33:11.544Z,13.40
2023-10-14T15:36:13.086Z,13.45
2023-10-14T15:39:06.939Z,13.59
2023-10-14T15:41:57.195Z,12.85
2023-10-14T15:44:47.476Z,12.48
2023-10-14T15:47:37.763Z,11.91
2023-10-14T15:50:32.932Z,11.62
2023-10-14T15:53:23.176Z,11.46
2023-10-14T15:56:21.312Z,11.31
2023-10-14T15:59:11.602Z,11.60
2023-10-14T16:02:02.779Z,11.57
2023-10-14T16:04:53.614Z,11.53
2023-10-14T16:07:47.074Z,11.68
2023-10-14T16:10:41.381Z,11.49
2023-10-14T16:13:31.707Z,11.53
2023-10-14T16:16:23.139Z,11.49
2023-10-14T16:19:18.511Z,11.49
2023-10-14T16:22:08.795Z,11.75
2023-10-14T16:25:03.365Z,11.31
2023-10-14T16:27:54.644Z,11.31
2023-10-14T16:30:45.549Z,11.17
2023-10-14T16:33:35.746Z,11.21
2023-10-14T16:36:28.351Z,11.12
2023-10-14T16:39:18.604Z,10.61
2023-10-14T16:42:12.730Z,10.70
2023-10-14T16:45:03.079Z,10.59
2023-10-14T16:47:54.761Z,10.40
2023-10-14T16:50:45.768Z,10.28
2023-10-14T16:53:36.015Z,10.32
2023-10-14T16:56:29.200Z,9.84
2023-10-14T16:59:23.307Z,9.82
2023-10-14T17:02:14.773Z,9.88
2023-10-14T17:05:08.535Z,9.95
2023-10-14T17:08:02.772Z,9.95
2023-10-14T17:10:54.857Z,10.00
2023-10-14T17:13:45.414Z,9.99
2023-10-14T17:16:39.618Z,9.97
2023-10-14T17:19:30.170Z,9.88
2023-10-14T17:22:20.500Z,10.03
2023-10-14T17:25:11.948Z,9.98
2023-10-14T17:28:05.132Z,9.87
2023-10-14T17:30:55.552Z,10.02
2023-10-14T17:33:48.883Z,10.25
2023-10-14T17:36:40.782Z,10.19
2023-10-14T17:39:32.103Z,10.17
2023-10-14T17:42:22.327Z,10.18
2023-10-14T17:45:14.729Z,10.08
2023-10-14T17:48:07.623Z,10.16
2023-10-14T17:51:02.586Z,10.39
2023-10-14T17:53:53.017Z,10.50
2023-10-14T17:56:43.566Z,10.47
2023-10-14T17:59:33.778Z,10.51
2023-10-14T18:02:25.136Z,10.75
2023-10-14T18:05:15.763Z,10.75
2023-10-14T18:08:10.604Z,10.78
2023-10-14T18:11:01.081Z,10.91
2023-10-14T18:13:51.651Z,10.71
2023-10-14T18:16:52.681Z,11.01
2023-10-14T18:19:51.944Z,10.65
2023-10-14T18:22:42.269Z,10.70
2023-10-14T18:25:40.134Z,10.32
2023-10-14T18:28:33.479Z,10.43
2023-10-14T18:31:23.874Z,10.26
2023-10-14T18:34:14.759Z,10.21
2023-10-14T18:37:05.447Z,10.27
2023-10-14T18:39:57.575Z,10.29
2023-10-14T18:42:51.581Z,10.22
2023-10-14T18:45:42.666Z,10.21
2023-10-14T18:48:33.511Z,10.15
2023-10-14T18:51:24.863Z,10.18
2023-10-14T18:54:15.707Z,10.21
2023-10-14T18:57:06.189Z,10.19
2023-10-14T18:59:59.005Z,10.23
2023-10-14T19:02:54.590Z,10.44
2023-10-14T19:05:45.317Z,10.26
2023-10-14T19:08:36.880Z,10.18
2023-10-14T19:11:27.663Z,10.17
2023-10-14T19:14:19.074Z,10.20
2023-10-14T19:17:13.373Z,10.03
2023-10-14T19:20:10.066Z,10.08
2023-10-14T19:23:14.072Z,10.02
2023-10-14T19:26:06.200Z,9.92
2023-10-14T19:28:56.557Z,9.86
2023-10-14T19:31:46.852Z,9.74
2023-10-14T19:34:40.041Z,9.69
2023-10-14T19:37:31.573Z,9.64
2023-10-14T19:40:24.123Z,9.55
2023-10-14T19:43:15.107Z,9.52
2023-10-14T19:46:06.864Z,9.63
2023-10-14T19:49:01.688Z,9.62
2023-10-14T19:51:54.760Z,9.55
2023-10-14T19:54:45.133Z,9.35
2023-10-14T19:57:36.428Z,9.41
2023-10-14T20:00:29.467Z,9.37
2023-10-14T20:03:21.335Z,9.47
2023-10-14T20:06:12.652Z,9.49
2023-10-14T20:09:11.040Z,9.50
2023-10-14T20:12:01.279Z,9.55
2023-10-14T20:14:51.573Z,9.53
2023-10-14T20:17:43.502Z,9.63
2023-10-14T20:20:33.886Z,9.65
2023-10-14T20:23:24.325Z,9.63
2023-10-14T20:26:17.144Z,9.53
2023-10-14T20:29:07.626Z,9.46
2023-10-14T20:31:57.983Z,9.46
2023-10-14T20:34:48.311Z,9.32
2023-10-14T20:37:40.726Z,9.19
2023-10-14T20:40:33.320Z,9.13
2023-10-14T20:43:26.274Z,9.08
2023-10-14T20:46:19.378Z,8.98
2023-10-14T20:49:11.898Z,8.98
2023-10-14T20:52:02.186Z,8.95
2023-10-14T20:54:53.040Z,8.96
2023-10-14T20:57:43.558Z,8.93
2023-10-14T21:00:40.739Z,8.95
2023-10-14T21:03:32.334Z,8.93
2023-10-14T21:06:25.052Z,9.04
2023-10-14T21:09:17.458Z,8.79
2023-10-14T21:12:08.358Z,8.90
2023-10-14T21:14:59.095Z,8.82
2023-10-14T21:17:51.962Z,8.88
2023-10-14T21:20:42.986Z,8.76
2023-10-14T21:23:33.724Z,8.81
2023-10-14T21:26:23.940Z,8.82
2023-10-14T21:29:16.227Z,8.77
2023-10-14T21:32:06.894Z,8.69
2023-10-14T21:35:01.010Z,8.74
2023-10-14T21:37:51.410Z,8.73
2023-10-14T21:40:41.778Z,8.88
2023-10-14T21:43:32.053Z,8.81
2023-10-14T21:46:23.733Z,8.71
2023-10-14T21:49:14.087Z,8.75
2023-10-14T21:52:07.343Z,8.82
2023-10-14T21:54:57.525Z,8.65
2023-10-14T21:57:47.765Z,8.65
2023-10-14T22:00:42.592Z,8.65
2023-10-14T22:03:33.940Z,8.59
2023-10-14T22:06:25.057Z,8.53
2023-10-14T22:09:19.235Z,8.61
2023-10-14T22:12:10.847Z,8.64
2023-10-14T22:15:01.150Z,8.60
2023-10-14T22:17:53.730Z,8.77
2023-10-14T22:20:44.030Z,8.64
2023-10-14T22:23:37.254Z,8.69
2023-10-14T22:26:33.916Z,8.58
2023-10-14T22:29:24.160Z,8.71
2023-10-14T22:32:14.558Z,8.73
2023-10-14T22:35:06.977Z,8.70
2023-10-14T22:37:57.335Z,8.73
2023-10-14T22:40:47.637Z,8.71
2023-10-14T22:43:42.167Z,8.59
2023-10-14T22:46:33.331Z,8.67
2023-10-14T22:49:24.341Z,8.58
2023-10-14T22:52:14.639Z,8.65
2023-10-14T22:55:04.986Z,8.62
2023-10-14T22:57:56.643Z,8.63
2023-10-14T23:00:50.287Z,8.50
2023-10-14T23:03:42.948Z,8.56
2023-10-14T23:06:33.269Z,8.66
2023-10-14T23:09:23.501Z,8.53
2023-10-14T23:12:13.728Z,8.51
2023-10-14T23:15:04.575Z,8.41
2023-10-14T23:17:58.452Z,8.56
2023-10-14T23:20:49.621Z,8.61
2023-10-14T23:23:41.306Z,8.56
2023-10-14T23:26:31.832Z,8.58
2023-10-14T23:29:22.128Z,8.57
2023-10-14T23:32:12.620Z,8.54
2023-10-14T23:35:10.547Z,8.44
2023-10-14T23:38:03.225Z,8.40
2023-10-14T23:40:54.095Z,8.33
2023-10-14T23:43:45.893Z,8.35
2023-10-14T23:46:36.274Z,8.33
2023-10-14T23:49:26.562Z,8.61
2023-10-14T23:52:19.517Z,8.33
2023-10-14T23:55:12.401Z,8.50
2023-10-14T23:58:02.972Z,8.34
